Time;durP1;ratioP1;P1;durP2;ratioP2;P2;SDS_P1;SDS_P2;PMS_P1;PMS_P2;Temp;Humidity;BMP_temperature;BMP_pressure;BME280_temperature;BME280_humidity;BME280_pressure;Samples;Min_cycle;Max_cycle;Signal;HPM_P1;HPM_P2
2021/12/17 00:01:08;;;;;;;0.63;0.40;;;;;;;18.50;59.79;100075.47;3139396;28;20167;-44
2021/12/17 00:04:36;;;;;;;0.95;0.55;;;;;;;18.47;59.91;100065.06;3138737;28;20052;-46
2021/12/17 00:06:17;;;;;;;0.90;0.40;;;;;;;18.46;59.71;100070.59;3141847;28;20101;-45
2021/12/17 00:07:49;;;;;;;0.60;0.60;;;;;;;18.42;59.74;100070.09;3140962;28;20795;-43
2021/12/17 00:09:20;;;;;;;;;;;;;;;18.43;59.65;100079.81;3138183;28;20056;-45
2021/12/17 00:10:51;;;;;;;1.63;0.98;;;;;;;18.42;59.99;100080.00;3144329;28;20570;-45
2021/12/17 00:12:25;;;;;;;2.25;0.68;;;;;;;18.39;59.94;100078.50;3141706;28;20736;-46
2021/12/17 00:13:58;;;;;;;1.42;0.77;;;;;;;18.38;59.99;100079.47;3138615;28;20083;-45
2021/12/17 00:15:31;;;;;;;1.50;0.50;;;;;;;18.36;60.04;100078.81;3138154;28;20102;-44
2021/12/17 00:17:07;;;;;;;1.00;0.68;;;;;;;18.34;59.97;100078.16;3137938;28;20742;-45
2021/12/17 00:18:52;;;;;;;2.20;1.00;;;;;;;18.33;60.09;100081.84;3139009;28;20059;-45
2021/12/17 00:49:38;;;;;;;0.68;0.57;;;;;;;17.99;60.14;100068.53;3142374;28;20495;-45
2021/12/17 00:51:54;;;;;;;0.50;0.50;;;;;;;17.96;60.45;100067.00;3137681;28;20594;-45
2021/12/17 00:53:27;;;;;;;0.68;0.68;;;;;;;17.95;60.47;100062.66;3132819;28;20052;-48
2021/12/17 00:54:59;;;;;;;0.68;0.57;;;;;;;17.92;60.32;100060.28;3139316;28;20660;-46
2021/12/17 00:56:30;;;;;;;1.10;0.52;;;;;;;17.92;60.42;100065.66;3135923;28;20462;-43
2021/12/17 00:58:02;;;;;;;1.00;0.70;;;;;;;17.90;60.41;100059.63;3142479;28;20701;-45
2021/12/17 00:59:34;;;;;;;1.10;0.75;;;;;;;17.88;60.36;100066.16;3139870;28;20040;-44
2021/12/17 01:01:06;;;;;;;1.65;0.65;;;;;;;17.86;60.49;100061.78;3137803;28;20056;-45
2021/12/17 01:02:38;;;;;;;0.85;0.80;;;;;;;17.85;60.46;100059.25;3144223;28;20567;-44
2021/12/17 01:04:12;;;;;;;2.20;0.70;;;;;;;17.84;60.48;100054.91;3135125;28;20049;-44
2021/12/17 01:05:44;;;;;;;1.00;0.60;;;;;;;17.82;60.36;100057.75;3140425;28;20114;-46
2021/12/17 01:07:17;;;;;;;0.88;0.60;;;;;;;17.80;60.62;100059.78;3138061;28;20127;-45
2021/12/17 01:08:50;;;;;;;1.17;0.60;;;;;;;17.78;60.49;100059.09;3142541;28;20633;-44
2021/12/17 01:10:26;;;;;;;1.10;0.50;;;;;;;17.76;60.59;100058.38;3139290;28;20048;-44
2021/12/17 01:11:59;;;;;;;0.77;0.50;;;;;;;17.75;60.51;100063.91;3142715;28;20139;-44
2021/12/17 01:13:30;;;;;;;0.98;0.50;;;;;;;17.74;60.46;100070.25;3141284;28;20792;-43
2021/12/17 01:15:04;;;;;;;0.52;0.50;;;;;;;17.72;60.42;100064.22;3139547;28;20037;-45
2021/12/17 01:16:36;;;;;;;0.68;0.50;;;;;;;17.70;60.56;100068.94;3139687;28;20106;-46
2021/12/17 01:18:13;;;;;;;1.35;0.70;;;;;;;17.69;60.72;100069.91;3139672;28;20040;-46
2021/12/17 01:21:42;;;;;;;1.58;0.50;;;;;;;17.67;60.76;100071.94;3137607;28;20045;-45
2021/12/17 01:23:42;;;;;;;0.85;0.80;;;;;;;17.65;60.60;100066.72;3142567;28;20048;-44
2021/12/17 01:25:16;;;;;;;1.17;0.52;;;;;;;17.62;60.64;100067.03;3144111;28;20059;-44
2021/12/17 01:35:54;;;;;;;0.30;0.30;;;;;;;17.53;60.76;100073.41;3140094;28;20040;-46
2021/12/17 01:41:42;;;;;;;1.35;0.60;;;;;;;17.47;60.84;100065.97;3138180;28;20198;-45
2021/12/17 01:43:13;;;;;;;1.58;0.85;;;;;;;17.45;60.86;100068.84;3140848;28;20044;-43
2021/12/17 01:44:45;;;;;;;1.13;0.70;;;;;;;17.44;60.72;100067.16;3143203;28;20056;-44
2021/12/17 01:46:20;;;;;;;1.15;0.70;;;;;;;17.43;60.81;100068.13;3143228;28;20079;-44
2021/12/17 01:47:51;;;;;;;0.55;0.43;;;;;;;17.42;60.85;100072.66;3137589;28;20049;-44
2021/12/17 01:55:42;;;;;;;0.52;0.45;;;;;;;17.40;60.78;100071.16;3140333;28;20168;-45
2021/12/17 01:56:59;;;;;;;0.60;0.60;;;;;;;17.32;60.95;100074.63;3138443;28;20057;-44
2021/12/17 02:00:22;;;;;;;0.75;0.50;;;;;;;17.28;60.99;100077.81;3138025;28;20052;-46
2021/12/17 02:02:01;;;;;;;1.27;0.57;;;;;;;17.25;60.98;100078.13;3140385;28;20095;-43
2021/12/17 02:03:32;;;;;;;1.15;0.60;;;;;;;17.25;61.07;100073.59;3141064;28;20493;-45
2021/12/17 02:05:04;;;;;;;0.45;0.40;;;;;;;17.23;60.95;100066.72;3136803;28;20557;-46
2021/12/17 02:06:38;;;;;;;;;;;;;;;17.22;61.00;100056.97;3136797;28;20056;-44
2021/12/17 02:08:10;;;;;;;0.68;0.47;;;;;;;17.19;61.00;100047.44;3138503;28;19928;-44
2021/12/17 02:10:19;;;;;;;1.05;0.73;;;;;;;17.17;61.05;100042.22;3140581;28;20792;-45
2021/12/17 02:19:42;;;;;;;1.27;0.70;;;;;;;17.11;61.14;100044.72;3139727;28;20045;-44
2021/12/17 02:28:46;;;;;;;1.23;0.80;;;;;;;17.02;61.22;100051.88;3140764;28;20400;-49
2021/12/17 02:30:43;;;;;;;1.05;0.45;;;;;;;17.00;61.21;100044.97;3144628;28;20080;-49
2021/12/17 02:32:17;;;;;;;0.73;0.68;;;;;;;16.98;61.17;100050.50;3142915;28;20048;-47
2021/12/17 02:33:49;;;;;;;1.50;0.93;;;;;;;16.96;61.33;100052.47;3137215;28;20045;-43
2021/12/17 02:35:32;;;;;;;2.25;0.82;;;;;;;16.95;61.19;100050.81;3137266;28;20180;-44
2021/12/17 02:37:09;;;;;;;1.10;0.50;;;;;;;16.94;61.32;100049.13;3136701;28;20040;-43
2021/12/17 02:38:40;;;;;;;0.52;0.40;;;;;;;16.92;61.32;100048.44;3139934;28;20127;-46
2021/12/17 02:42:21;;;;;;;1.30;0.50;;;;;;;16.90;61.28;100047.75;3140537;28;20056;-47
2021/12/17 02:42:39;;;;;;;0.50;0.50;;;;;;;16.89;61.43;100051.44;3138097;28;20055;-45
2021/12/17 02:46:02;;;;;;;1.65;0.55;;;;;;;16.86;61.45;100051.75;3141737;28;20040;-43
2021/12/17 02:47:34;;;;;;;0.40;0.40;;;;;;;16.84;61.34;100043.88;3142933;28;20186;-44
2021/12/17 02:49:08;;;;;;;0.95;0.50;;;;;;;16.83;61.45;100036.00;3140178;28;20055;-44
2021/12/17 02:50:42;;;;;;;1.52;1.35;;;;;;;16.80;61.34;100036.28;3140856;28;20060;-44
2021/12/17 02:52:16;;;;;;;0.68;0.68;;;;;;;16.80;61.57;100030.94;3137721;28;20135;-43
2021/12/17 02:53:48;;;;;;;2.38;1.00;;;;;;;16.79;61.35;100034.63;3141973;28;20115;-46
2021/12/17 02:55:21;;;;;;;0.77;0.70;;;;;;;16.78;61.38;100032.94;3140976;28;20163;-43
2021/12/17 02:56:53;;;;;;;0.75;0.30;;;;;;;16.77;61.32;100039.28;3140443;28;20563;-45
2021/12/17 02:58:27;;;;;;;0.90;0.40;;;;;;;16.75;61.66;100034.91;3139514;28;20132;-45
2021/12/17 03:00:00;;;;;;;0.98;0.50;;;;;;;16.74;61.48;100029.69;3138428;28;20047;-44
2021/12/17 03:01:32;;;;;;;0.68;0.60;;;;;;;16.71;61.55;100033.53;3140437;28;20151;-46
2021/12/17 03:03:06;;;;;;;0.70;0.60;;;;;;;16.71;61.55;100038.06;3138819;28;20076;-45
2021/12/17 03:04:41;;;;;;;0.73;0.73;;;;;;;16.69;61.55;100029.34;3137617;28;20774;-43
2021/12/17 03:06:13;;;;;;;0.73;0.45;;;;;;;16.68;61.57;100039.19;3144516;28;20520;-44
2021/12/17 03:07:47;;;;;;;0.70;0.70;;;;;;;16.67;61.51;100040.22;3140696;28;20048;-45
2021/12/17 03:09:28;;;;;;;2.13;1.10;;;;;;;16.66;61.50;100037.69;3138421;28;20051;-44
2021/12/17 03:11:00;;;;;;;0.95;0.70;;;;;;;16.64;61.79;100028.97;3139701;28;20468;-44
2021/12/17 03:12:37;;;;;;;0.90;0.63;;;;;;;16.64;61.71;100031.66;3144264;28;20052;-43
2021/12/17 03:14:09;;;;;;;0.88;0.70;;;;;;;16.62;61.55;100029.13;3142469;28;20572;-45
2021/12/17 03:15:48;;;;;;;1.67;0.68;;;;;;;16.61;61.47;100029.28;3143516;28;20063;-46
2021/12/17 03:17:36;;;;;;;0.40;0.40;;;;;;;16.62;61.54;100029.13;3138620;28;20056;-44
2021/12/17 03:19:12;;;;;;;1.45;0.60;;;;;;;16.63;61.54;100029.94;3141994;28;20073;-43
2021/12/17 03:24:26;;;;;;;0.73;0.73;;;;;;;16.64;61.53;100031.66;3143756;28;20040;-44
2021/12/17 03:25:59;;;;;;;1.27;0.50;;;;;;;16.64;61.50;100023.63;3140421;28;20036;-43
2021/12/17 03:27:30;;;;;;;0.70;0.50;;;;;;;16.63;61.43;100030.81;3144015;28;20048;-43
2021/12/17 03:29:06;;;;;;;0.90;0.68;;;;;;;16.63;61.43;100025.47;3142285;28;20051;-43
2021/12/17 03:30:37;;;;;;;0.65;0.60;;;;;;;16.62;61.45;100023.75;3144583;28;20044;-46
2021/12/17 03:32:09;;;;;;;0.55;0.40;;;;;;;16.62;61.27;100026.44;3142598;28;20125;-44
2021/12/17 03:33:42;;;;;;;1.55;0.73;;;;;;;16.62;61.40;100021.09;3142017;28;20078;-45
2021/12/17 03:35:14;;;;;;;1.73;0.70;;;;;;;16.62;61.42;100021.09;3138936;28;21029;-44
2021/12/17 03:36:51;;;;;;;2.67;0.68;;;;;;;16.62;61.50;100018.41;3140978;28;20136;-48
2021/12/17 03:38:22;;;;;;;1.60;0.70;;;;;;;16.61;61.45;100016.72;3143613;28;20051;-43
2021/12/17 03:39:55;;;;;;;0.45;0.40;;;;;;;16.60;61.39;100012.34;3142563;28;20055;-45
2021/12/17 03:41:34;;;;;;;0.95;0.73;;;;;;;16.60;61.39;100015.03;3139026;28;20040;-46
2021/12/17 03:43:12;;;;;;;0.70;0.70;;;;;;;16.60;61.40;100022.22;3143528;28;20628;-43
2021/12/17 03:44:43;;;;;;;0.60;0.60;;;;;;;16.59;61.42;100015.22;3140607;28;20058;-44
2021/12/17 03:46:15;;;;;;;;;;;;;;;16.57;61.36;100015.34;3142847;28;20139;-45
2021/12/17 03:47:47;;;;;;;1.33;0.60;;;;;;;16.57;61.41;100018.03;3144327;28;19963;-44
2021/12/17 03:49:21;;;;;;;1.80;0.68;;;;;;;16.56;61.37;100008.31;3139846;28;20045;-43
2021/12/17 03:50:52;;;;;;;1.85;1.75;;;;;;;16.55;61.58;100009.34;3141108;28;20172;-44
2021/12/17 03:52:24;;;;;;;1.20;0.70;;;;;;;16.54;61.58;100005.78;3138822;28;20636;-43
2021/12/17 03:53:57;;;;;;;1.95;1.50;;;;;;;16.55;61.52;100014.69;3142420;28;20052;-46
2021/12/17 03:55:31;;;;;;;1.42;0.52;;;;;;;16.53;61.44;100014.84;3139972;28;20759;-45
2021/12/17 03:57:07;;;;;;;0.60;0.55;;;;;;;16.53;61.45;100012.16;3140998;28;20146;-44
2021/12/17 03:58:39;;;;;;;0.90;0.40;;;;;;;16.51;61.40;100006.09;3142556;28;20048;-43
2021/12/17 04:00:13;;;;;;;0.50;0.30;;;;;;;16.51;61.56;100006.09;3138441;28;20111;-43
2021/12/17 04:01:44;;;;;;;0.70;0.50;;;;;;;16.51;61.39;100005.28;3139169;28;20071;-46
2021/12/17 04:03:15;;;;;;;0.77;0.40;;;;;;;16.50;61.49;100007.13;3136655;28;20052;-46
2021/12/17 04:04:47;;;;;;;1.60;0.67;;;;;;;16.49;61.42;100008.13;3137463;28;20528;-46
2021/12/17 04:06:18;;;;;;;0.75;0.30;;;;;;;16.47;61.53;100002.06;3142905;28;20286;-44
2021/12/17 04:07:50;;;;;;;0.97;0.70;;;;;;;16.47;61.47;99999.41;3141070;28;20051;-45
2021/12/17 04:09:23;;;;;;;1.10;0.50;;;;;;;16.49;61.49;100007.25;3139773;28;20052;-43
2021/12/17 04:11:03;;;;;;;1.17;0.85;;;;;;;16.45;61.41;100009.41;3141652;28;20106;-43
2021/12/17 04:12:45;;;;;;;2.13;0.98;;;;;;;16.45;61.58;100005.91;3140180;28;20134;-45
2021/12/17 04:14:19;;;;;;;0.90;0.63;;;;;;;16.45;61.50;100001.38;3136916;28;20481;-43
2021/12/17 04:15:56;;;;;;;0.80;0.70;;;;;;;16.44;61.54;100007.75;3142216;28;20048;-43
2021/12/17 04:17:27;;;;;;;1.08;0.77;;;;;;;16.43;61.61;100007.88;3141206;28;20179;-46
2021/12/17 04:19:00;;;;;;;0.82;0.50;;;;;;;16.42;61.51;99998.19;3139804;28;20068;-42
2021/12/17 04:20:31;;;;;;;1.10;0.50;;;;;;;16.41;61.48;100000.03;3139094;28;20036;-46
2021/12/17 04:22:04;;;;;;;2.38;0.75;;;;;;;16.40;61.54;99998.31;3138865;28;20049;-47
2021/12/17 04:23:36;;;;;;;0.40;0.40;;;;;;;16.40;61.49;100000.16;3141362;28;20037;-43
2021/12/17 04:25:08;;;;;;;1.95;0.70;;;;;;;16.39;61.56;99995.81;3139943;28;20140;-43
2021/12/17 04:26:41;;;;;;;0.80;0.50;;;;;;;16.39;61.53;100001.19;3138452;28;20052;-45
2021/12/17 04:28:13;;;;;;;1.05;0.45;;;;;;;16.38;61.67;100015.53;3139711;28;20143;-45
2021/12/17 04:29:45;;;;;;;0.40;0.40;;;;;;;16.37;61.58;100013.88;3135628;28;20051;-45
2021/12/17 04:31:18;;;;;;;0.95;0.63;;;;;;;16.35;61.63;100018.53;3142930;28;20052;-44
2021/12/17 04:32:50;;;;;;;0.82;0.52;;;;;;;16.34;61.61;100015.03;3137876;28;20681;-44
2021/12/17 04:34:23;;;;;;;0.70;0.50;;;;;;;16.33;61.69;100020.53;3142721;28;20070;-44
2021/12/17 04:35:57;;;;;;;1.17;0.50;;;;;;;16.33;61.52;100015.19;3140527;28;21197;-45
2021/12/17 04:37:28;;;;;;;0.40;0.40;;;;;;;16.31;61.54;100013.50;3140788;28;20057;-43
2021/12/17 04:39:01;;;;;;;0.30;0.28;;;;;;;16.32;61.64;100017.00;3140891;28;20052;-44
2021/12/17 04:40:33;;;;;;;1.05;0.55;;;;;;;16.30;61.61;100019.84;3138849;28;20040;-43
2021/12/17 04:42:14;;;;;;;0.88;0.55;;;;;;;16.29;61.75;100011.97;3138421;28;20518;-44
2021/12/17 04:43:57;;;;;;;1.08;0.98;;;;;;;16.28;61.71;100021.00;3140469;28;20042;-43
2021/12/17 04:45:29;;;;;;;0.50;0.50;;;;;;;16.28;61.92;100015.66;3138687;28;20834;-45
2021/12/17 04:57:15;;;;;;;2.67;0.60;;;;;;;16.26;61.78;100013.09;3142372;28;20051;-43
2021/12/17 04:58:06;;;;;;;1.77;1.10;;;;;;;16.18;61.80;100031.78;3139780;28;20032;-44
2021/12/17 04:59:37;;;;;;;1.33;0.60;;;;;;;16.17;61.93;100046.16;3140293;28;20068;-42
2021/12/17 05:01:13;;;;;;;0.52;0.32;;;;;;;16.16;61.72;100043.63;3138355;28;20088;-47
2021/12/17 05:02:48;;;;;;;1.08;0.52;;;;;;;16.16;61.81;100043.63;3140207;28;20048;-44
2021/12/17 05:04:20;;;;;;;0.40;0.38;;;;;;;16.15;61.74;100048.16;3139179;28;20052;-45
2021/12/17 05:05:51;;;;;;;1.33;0.80;;;;;;;16.14;61.72;100041.13;3135767;28;20059;-45
2021/12/17 05:07:24;;;;;;;1.08;1.00;;;;;;;16.16;61.77;100046.31;3134804;28;20192;-45
2021/12/17 05:09:02;;;;;;;0.73;0.45;;;;;;;16.18;61.65;100047.84;3137742;28;20170;-44
2021/12/17 05:10:53;;;;;;;0.95;0.65;;;;;;;16.21;61.74;100044.84;3143074;28;20052;-44
2021/12/17 05:19:47;;;;;;;0.63;0.50;;;;;;;16.61;61.42;100030.13;3140471;28;20048;-44
2021/12/17 05:21:22;;;;;;;0.70;0.50;;;;;;;16.70;61.12;100039.06;3136724;28;20097;-44
2021/12/17 05:22:57;;;;;;;0.75;0.63;;;;;;;16.75;61.08;100029.56;3142915;28;20478;-42
2021/12/17 05:24:29;;;;;;;0.73;0.40;;;;;;;16.83;61.14;100030.66;3136752;28;20071;-44
2021/12/17 05:26:04;;;;;;;0.50;0.50;;;;;;;16.87;61.08;100026.63;3137683;28;20052;-45
2021/12/17 05:27:35;;;;;;;0.40;0.40;;;;;;;16.93;60.77;100037.56;3140824;28;20636;-44
2021/12/17 05:29:07;;;;;;;0.68;0.50;;;;;;;17.00;60.79;100040.47;3138653;28;20055;-43
2021/12/17 05:30:45;;;;;;;0.47;0.40;;;;;;;17.07;60.71;100038.81;3138629;28;20057;-47
2021/12/17 05:32:17;;;;;;;0.43;0.43;;;;;;;17.12;60.64;100047.22;3137851;28;20516;-44
2021/12/17 05:33:49;;;;;;;0.57;0.40;;;;;;;17.18;60.43;100054.59;3140897;28;20486;-45
2021/12/17 05:35:21;;;;;;;0.70;0.50;;;;;;;17.24;60.41;100049.63;3137210;28;20464;-43
2021/12/17 05:36:53;;;;;;;1.15;0.57;;;;;;;17.27;60.16;100049.28;3138226;28;20075;-44
2021/12/17 05:38:26;;;;;;;0.73;0.70;;;;;;;17.30;60.29;100054.31;3140010;28;20057;-42
2021/12/17 05:39:59;;;;;;;0.80;0.40;;;;;;;17.32;60.33;100047.81;3137238;28;20143;-47
2021/12/17 05:41:30;;;;;;;0.93;0.43;;;;;;;17.34;60.21;100035.09;3134984;28;20429;-45
2021/12/17 05:43:05;;;;;;;1.05;0.70;;;;;;;17.39;60.26;100026.56;3138654;28;20619;-45
2021/12/17 05:44:37;;;;;;;0.45;0.45;;;;;;;17.40;60.11;100025.56;3140016;28;20074;-43
2021/12/17 05:46:12;;;;;;;0.95;0.40;;;;;;;17.44;59.95;100026.94;3139819;28;20068;-45
2021/12/17 05:47:44;;;;;;;0.75;0.60;;;;;;;17.48;60.08;100030.94;3139509;28;20048;-45
2021/12/17 05:49:16;;;;;;;0.50;0.40;;;;;;;17.50;59.87;100031.63;3139513;28;20056;-45
2021/12/17 05:50:49;;;;;;;1.15;0.77;;;;;;;17.55;60.03;100041.84;3140239;28;20044;-44
2021/12/17 05:52:21;;;;;;;0.57;0.47;;;;;;;17.59;59.85;100037.88;3139648;28;20135;-44
2021/12/17 05:53:53;;;;;;;;;;;;;;;17.61;60.02;100036.69;3140219;28;20557;-45
2021/12/17 05:55:25;;;;;;;0.50;0.45;;;;;;;17.64;59.75;100039.06;3138376;28;20412;-43
2021/12/17 05:56:57;;;;;;;0.52;0.30;;;;;;;17.69;59.76;100037.72;3141310;28;20127;-43
2021/12/17 05:58:30;;;;;;;0.70;0.35;;;;;;;17.72;59.87;100026.66;3139219;28;20097;-46
2021/12/17 06:00:02;;;;;;;0.80;0.47;;;;;;;17.75;59.72;100037.09;3138666;28;20681;-45
2021/12/17 06:01:35;;;;;;;0.85;0.50;;;;;;;17.79;59.62;100046.50;3144326;28;20059;-43
2021/12/17 06:03:07;;;;;;;0.82;0.63;;;;;;;17.82;59.61;100040.81;3142400;28;20061;-45
2021/12/17 06:04:39;;;;;;;1.30;0.50;;;;;;;17.87;59.54;100035.78;3139039;28;20050;-44
2021/12/17 06:06:11;;;;;;;0.45;0.40;;;;;;;17.90;59.55;100050.72;3137236;28;20044;-45
2021/12/17 06:07:43;;;;;;;0.40;0.40;;;;;;;17.92;59.46;100049.56;3138071;28;20049;-46
2021/12/17 06:09:15;;;;;;;0.50;0.40;;;;;;;17.95;59.31;100051.91;3137813;28;20513;-45
2021/12/17 06:10:46;;;;;;;0.82;0.50;;;;;;;17.97;59.45;100059.78;3141035;28;20804;-44
2021/12/17 06:12:18;;;;;;;1.42;0.40;;;;;;;17.99;59.38;100052.41;3135684;28;20156;-45
2021/12/17 06:13:50;;;;;;;0.45;0.45;;;;;;;18.01;59.38;100043.19;3142141;28;20152;-45
2021/12/17 06:15:23;;;;;;;0.50;0.30;;;;;;;18.03;59.36;100043.03;3136503;28;20756;-44
2021/12/17 06:16:56;;;;;;;0.40;0.20;;;;;;;18.04;59.41;100047.38;3143037;28;20121;-45
2021/12/17 06:18:28;;;;;;;0.28;0.22;;;;;;;18.05;59.58;100049.06;3140537;28;20127;-45
2021/12/17 06:20:00;;;;;;;0.75;0.40;;;;;;;18.06;59.32;100051.59;3136932;28;20104;-46
2021/12/17 06:21:32;;;;;;;0.52;0.52;;;;;;;18.07;59.22;100064.00;3143150;28;20720;-45
2021/12/17 06:23:04;;;;;;;0.65;0.40;;;;;;;18.09;59.18;100055.78;3140268;28;20048;-46
2021/12/17 06:24:36;;;;;;;0.70;0.50;;;;;;;18.09;59.42;100063.84;3137029;28;20422;-45
2021/12/17 06:26:08;;;;;;;1.00;0.40;;;;;;;18.09;59.36;100072.75;3136196;28;20048;-45
2021/12/17 06:27:41;;;;;;;0.68;0.30;;;;;;;18.11;59.18;100069.03;3141440;28;20174;-44
2021/12/17 06:29:16;;;;;;;0.55;0.28;;;;;;;18.12;59.29;100071.56;3140630;28;20073;-44
2021/12/17 06:30:48;;;;;;;0.93;0.40;;;;;;;18.12;59.24;100071.56;3137405;28;20528;-47
2021/12/17 06:32:22;;;;;;;0.40;0.40;;;;;;;18.13;59.24;100075.94;3138350;28;20131;-45
2021/12/17 06:33:54;;;;;;;1.25;0.65;;;;;;;18.14;59.33;100072.25;3139862;28;21033;-45
2021/12/17 06:35:26;;;;;;;1.20;0.73;;;;;;;18.13;59.26;100067.03;3139676;28;20045;-45
2021/12/17 06:36:58;;;;;;;0.50;0.40;;;;;;;18.14;59.06;100061.50;3140223;28;20052;-44
2021/12/17 06:38:30;;;;;;;0.60;0.45;;;;;;;18.13;59.16;100061.66;3140594;28;20063;-44
2021/12/17 06:40:02;;;;;;;0.52;0.30;;;;;;;18.14;59.14;100068.72;3138839;28;20055;-45
2021/12/17 06:41:35;;;;;;;0.75;0.55;;;;;;;18.14;59.35;100058.00;3138988;28;20102;-47
2021/12/17 06:43:07;;;;;;;1.98;0.82;;;;;;;18.15;59.23;100057.81;3142668;28;20083;-45
2021/12/17 06:44:40;;;;;;;0.43;0.43;;;;;;;18.17;59.12;100057.66;3137416;28;20063;-47
2021/12/17 06:46:24;;;;;;;0.28;0.28;;;;;;;18.18;59.21;100059.31;3137947;28;20036;-45
2021/12/17 06:47:58;;;;;;;0.82;0.30;;;;;;;18.20;59.22;100062.69;3140718;28;20070;-44
2021/12/17 06:49:45;;;;;;;0.50;0.50;;;;;;;18.20;59.25;100062.69;3136790;28;20050;-44
2021/12/17 06:55:04;;;;;;;0.65;0.47;;;;;;;18.25;59.12;100060.34;3141606;28;20049;-45
2021/12/17 07:00:37;;;;;;;0.40;0.38;;;;;;;18.28;59.26;100057.34;3139015;28;20892;-46
2021/12/17 07:06:07;;;;;;;0.40;0.40;;;;;;;18.33;59.14;100060.38;3106096;28;20046;-43
2021/12/17 07:11:50;;;;;;;0.40;0.40;;;;;;;18.37;59.01;100069.75;3122051;28;20098;-45
2021/12/17 07:17:15;;;;;;;0.60;0.43;;;;;;;18.44;58.73;100080.66;3145983;28;20165;-44
2021/12/17 07:19:34;;;;;;;0.30;0.30;;;;;;;18.47;59.07;100081.19;3138913;28;20131;-44
2021/12/17 07:21:12;;;;;;;0.17;0.13;;;;;;;18.49;59.02;100079.16;3138939;28;21483;-45
2021/12/17 07:23:01;;;;;;;0.43;0.40;;;;;;;18.50;58.83;100080.84;3141198;28;20761;-45
2021/12/17 07:28:09;;;;;;;0.30;0.30;;;;;;;18.56;58.71;100087.38;3140098;28;20033;-45
2021/12/17 07:33:22;;;;;;;0.20;0.20;;;;;;;18.59;58.94;100091.59;3136110;28;20155;-46
2021/12/17 07:35:23;;;;;;;0.40;0.40;;;;;;;18.59;58.86;100088.91;3126268;28;20109;-44
2021/12/17 07:38:37;;;;;;;0.30;0.30;;;;;;;18.58;58.78;100088.03;3137079;28;20138;-44
2021/12/17 07:38:57;;;;;;;0.43;0.43;;;;;;;18.59;58.75;100099.66;3140541;28;20056;-45
2021/12/17 07:40:29;;;;;;;0.50;0.43;;;;;;;18.58;59.08;100095.28;3146080;28;20131;-46
2021/12/17 07:42:00;;;;;;;0.40;0.30;;;;;;;18.59;58.94;100097.81;3138373;28;20298;-44
2021/12/17 07:43:37;;;;;;;0.32;0.30;;;;;;;18.58;58.88;100093.41;3139848;28;20142;-44
2021/12/17 07:45:10;;;;;;;0.57;0.30;;;;;;;18.58;58.77;100093.41;3139342;28;20264;-46
2021/12/17 07:46:42;;;;;;;0.25;0.20;;;;;;;18.58;58.96;100104.16;3138395;28;20135;-44
2021/12/17 07:48:15;;;;;;;0.35;0.35;;;;;;;18.57;58.81;100093.59;3141002;28;20090;-46
2021/12/17 07:49:46;;;;;;;0.60;0.47;;;;;;;18.57;58.96;100104.34;3141557;28;20044;-45
2021/12/17 07:51:21;;;;;;;0.55;0.30;;;;;;;18.56;58.87;100100.00;3141660;28;22330;-44
2021/12/17 07:52:53;;;;;;;0.40;0.30;;;;;;;18.55;58.79;100096.44;3132677;28;20142;-47
2021/12/17 07:54:25;;;;;;;0.50;0.43;;;;;;;18.54;58.72;100100.97;3142663;28;20055;-47
2021/12/17 07:55:57;;;;;;;0.45;0.30;;;;;;;18.54;58.79;100092.09;3140831;28;20068;-47
2021/12/17 07:57:29;;;;;;;0.38;0.38;;;;;;;18.52;58.93;100092.25;3142452;28;20059;-46
2021/12/17 07:59:01;;;;;;;0.38;0.38;;;;;;;18.52;59.00;100094.94;3138708;28;20040;-44
2021/12/17 08:00:33;;;;;;;0.43;0.30;;;;;;;18.51;58.97;100097.78;3142607;28;20052;-46
2021/12/17 08:02:05;;;;;;;0.52;0.45;;;;;;;18.50;58.94;100102.34;3138915;28;20053;-48
2021/12/17 08:03:37;;;;;;;0.40;0.40;;;;;;;18.50;58.78;100104.19;3142257;28;20041;-44
2021/12/17 08:05:09;;;;;;;0.32;0.30;;;;;;;18.49;58.83;100108.69;3138673;28;20139;-43
2021/12/17 08:06:40;;;;;;;0.63;0.30;;;;;;;18.47;58.77;100102.69;3144874;28;20485;-44
2021/12/17 08:08:14;;;;;;;0.20;0.20;;;;;;;18.46;59.05;100109.03;3141789;28;20147;-44
2021/12/17 08:09:46;;;;;;;0.50;0.40;;;;;;;18.46;58.83;100105.50;3144574;28;20131;-45
2021/12/17 08:11:18;;;;;;;0.43;0.30;;;;;;;18.43;59.05;100106.69;3143938;28;20048;-49
2021/12/17 08:12:54;;;;;;;0.30;0.30;;;;;;;18.43;58.96;100116.59;3142943;28;20078;-53
2021/12/17 08:14:28;;;;;;;0.20;0.20;;;;;;;18.42;58.88;100104.19;3142878;28;20554;-50
2021/12/17 08:16:17;;;;;;;0.40;0.28;;;;;;;18.40;58.90;100106.19;3143144;28;20056;-46
2021/12/17 08:18:13;;;;;;;0.32;0.30;;;;;;;18.38;59.04;100109.03;3141574;28;20047;-46
2021/12/17 08:25:16;;;;;;;0.93;0.45;;;;;;;18.33;59.04;100113.22;3138918;28;20045;-50
2021/12/17 08:26:57;;;;;;;0.25;0.20;;;;;;;18.31;59.16;100108.03;3141152;28;20067;-50
2021/12/17 08:28:49;;;;;;;0.35;0.28;;;;;;;18.29;59.24;100123.47;3139215;28;20036;-49
2021/12/17 08:30:24;;;;;;;1.92;0.50;;;;;;;18.27;59.10;100128.16;3138799;28;20293;-47
2021/12/17 08:31:56;;;;;;;0.55;0.55;;;;;;;18.25;59.09;100132.88;3142756;28;20787;-53
2021/12/17 08:33:28;;;;;;;0.10;0.10;;;;;;;18.23;59.12;100130.34;3143722;28;20060;-44
2021/12/17 08:35:00;;;;;;;0.65;0.30;;;;;;;18.22;59.05;100133.16;3138210;28;20053;-49
2021/12/17 08:36:32;;;;;;;0.52;0.40;;;;;;;18.20;59.15;100130.66;3143729;28;20055;-44
2021/12/17 08:38:07;;;;;;;0.32;0.25;;;;;;;18.19;59.09;100128.13;3144975;28;20171;-49
2021/12/17 08:39:40;;;;;;;0.77;0.25;;;;;;;18.18;59.16;100131.84;3141277;28;20055;-50
2021/12/17 08:41:12;;;;;;;0.25;0.15;;;;;;;18.16;59.09;100137.34;3140576;28;20044;-50
2021/12/17 08:42:44;;;;;;;0.20;0.13;;;;;;;18.14;59.22;100138.56;3137475;28;20047;-47
2021/12/17 08:44:17;;;;;;;0.38;0.38;;;;;;;18.12;59.26;100141.38;3141265;28;20596;-53
2021/12/17 08:45:48;;;;;;;0.20;0.20;;;;;;;18.10;59.35;100146.06;3139613;28;20521;-48
2021/12/17 08:47:20;;;;;;;0.35;0.30;;;;;;;18.07;59.37;100144.56;3135928;28;20048;-46
2021/12/17 08:48:52;;;;;;;0.50;0.35;;;;;;;18.06;59.46;100144.72;3136722;28;20044;-50
2021/12/17 08:50:25;;;;;;;0.35;0.35;;;;;;;18.05;59.24;100145.72;3138729;28;20141;-51
2021/12/17 08:51:56;;;;;;;0.40;0.40;;;;;;;18.03;59.40;100153.94;3140839;28;20127;-46
2021/12/17 08:53:28;;;;;;;0.40;0.40;;;;;;;18.02;59.24;100157.63;3135581;28;20057;-48
2021/12/17 08:55:02;;;;;;;0.20;0.10;;;;;;;18.00;59.38;100159.66;3137796;28;20162;-50
2021/12/17 08:56:37;;;;;;;0.50;0.40;;;;;;;17.98;59.33;100161.66;3143037;28;20713;-50
2021/12/17 08:58:12;;;;;;;0.30;0.30;;;;;;;17.97;59.40;100154.59;3140432;28;20157;-46
2021/12/17 08:59:44;;;;;;;0.95;0.50;;;;;;;17.95;59.42;100156.59;3141863;28;20052;-51
2021/12/17 09:01:16;;;;;;;0.52;0.52;;;;;;;17.95;59.44;100158.44;3137696;28;20052;-49
2021/12/17 09:02:48;;;;;;;0.35;0.22;;;;;;;17.93;59.47;100163.97;3142533;28;20049;-46
2021/12/17 09:04:20;;;;;;;0.13;0.13;;;;;;;17.91;59.48;100160.59;3135816;28;20122;-47
2021/12/17 09:05:51;;;;;;;0.32;0.20;;;;;;;17.88;59.45;100160.94;3136826;28;20162;-50
2021/12/17 09:07:23;;;;;;;0.22;0.17;;;;;;;17.88;59.60;100157.41;3140016;28;20075;-48
2021/12/17 09:08:56;;;;;;;0.25;0.20;;;;;;;17.84;59.54;100155.06;3142532;28;20063;-49
2021/12/17 09:10:29;;;;;;;0.52;0.40;;;;;;;17.83;59.47;100157.91;3137771;28;20858;-48
2021/12/17 09:12:01;;;;;;;0.70;0.50;;;;;;;17.81;59.63;100150.00;3137506;28;20052;-47
2021/12/17 09:13:32;;;;;;;0.50;0.30;;;;;;;17.79;59.60;100151.16;3139594;28;20565;-48
2021/12/17 09:15:04;;;;;;;;;;;;;;;17.77;59.51;100147.75;3142548;28;20159;-47
2021/12/17 09:16:36;;;;;;;0.40;0.40;;;;;;;17.75;59.59;100145.25;3140543;28;19920;-47
2021/12/17 09:18:08;;;;;;;0.20;0.20;;;;;;;17.74;59.70;100142.72;3138712;28;20126;-49
2021/12/17 09:19:40;;;;;;;0.47;0.30;;;;;;;17.72;59.69;100150.09;3139678;28;20128;-53
2021/12/17 09:21:12;;;;;;;0.40;0.30;;;;;;;17.71;59.78;100153.78;3139429;28;20860;-53
2021/12/17 09:22:43;;;;;;;0.70;0.20;;;;;;;17.68;59.70;100154.94;3138538;28;20618;-52
2021/12/17 09:24:16;;;;;;;1.42;0.40;;;;;;;17.67;59.70;100157.81;3139741;28;20143;-46
2021/12/17 09:25:49;;;;;;;0.50;0.30;;;;;;;17.63;59.90;100160.81;3139799;28;20139;-49